createdAt,value
2018-12-20T00:01:38.949Z,3.40
2018-12-20T00:04:07.138Z,3.40
2018-12-20T00:06:35.299Z,3.60
2018-12-20T00:09:06.237Z,3.60
2018-12-20T00:11:34.711Z,3.50
2018-12-20T00:14:03.011Z,3.40
2018-12-20T00:16:31.227Z,3.30
2018-12-20T00:18:59.565Z,3.30
2018-12-20T00:21:27.897Z,3.40
2018-12-20T00:23:56.104Z,3.40
2018-12-20T00:26:24.256Z,3.40
2018-12-20T00:28:52.506Z,3.60
2018-12-20T00:31:20.729Z,3.50
2018-12-20T00:33:48.925Z,3.50
2018-12-20T00:36:17.157Z,3.40
2018-12-20T00:38:45.342Z,3.50
2018-12-20T00:41:13.734Z,3.50
2018-12-20T00:43:41.944Z,3.60
2018-12-20T00:46:10.096Z,3.50
2018-12-20T00:48:38.584Z,3.50
2018-12-20T00:51:06.764Z,3.50
2018-12-20T00:53:34.940Z,3.50
2018-12-20T00:56:03.084Z,3.50
2018-12-20T00:58:31.291Z,3.50
2018-12-20T01:00:59.735Z,3.50
2018-12-20T01:03:28.219Z,3.50
2018-12-20T01:05:56.488Z,3.40
2018-12-20T01:08:24.834Z,3.40
2018-12-20T01:10:53.004Z,3.50
2018-12-20T01:13:21.250Z,3.60
2018-12-20T01:15:49.448Z,3.50
2018-12-20T01:18:18.187Z,3.40
2018-12-20T01:20:46.681Z,3.50
2018-12-20T01:23:15.037Z,3.50
2018-12-20T01:25:43.339Z,3.40
2018-12-20T01:28:12.365Z,3.50
2018-12-20T01:30:40.640Z,3.60
2018-12-20T01:33:08.868Z,3.70
2018-12-20T01:35:37.069Z,3.70
2018-12-20T01:38:05.327Z,3.60
2018-12-20T01:40:33.593Z,3.50
2018-12-20T01:43:01.905Z,3.40
2018-12-20T01:45:30.204Z,3.40
2018-12-20T01:47:58.759Z,3.60
2018-12-20T01:50:27.052Z,3.60
2018-12-20T01:52:55.403Z,3.60
2018-12-20T01:55:23.647Z,3.60
2018-12-20T01:57:51.850Z,3.70
2018-12-20T02:00:20.034Z,3.60
2018-12-20T02:02:48.191Z,3.60
2018-12-20T02:05:16.517Z,3.60
2018-12-20T02:07:44.849Z,3.50
2018-12-20T02:10:13.022Z,3.50
2018-12-20T02:12:41.170Z,3.50
2018-12-20T02:15:09.611Z,3.50
2018-12-20T02:17:38.064Z,3.60
2018-12-20T02:20:07.028Z,3.60
2018-12-20T02:22:35.342Z,3.60
2018-12-20T02:25:04.109Z,3.50
2018-12-20T02:27:32.542Z,3.40
2018-12-20T02:30:01.044Z,3.50
2018-12-20T02:32:29.487Z,3.70
2018-12-20T02:34:58.043Z,3.70
2018-12-20T02:37:26.510Z,3.70
2018-12-20T02:39:54.853Z,3.70
2018-12-20T02:42:23.183Z,3.70
2018-12-20T02:44:51.438Z,3.60
2018-12-20T02:47:21.593Z,3.50
2018-12-20T02:49:49.931Z,3.60
2018-12-20T02:52:18.216Z,3.50
2018-12-20T02:54:46.579Z,3.50
2018-12-20T02:57:15.220Z,3.50
2018-12-20T02:59:43.460Z,3.60
2018-12-20T03:02:11.613Z,3.50
2018-12-20T03:04:40.134Z,3.70
2018-12-20T03:07:08.542Z,3.60
2018-12-20T03:09:36.796Z,3.70
2018-12-20T03:12:05.132Z,3.70
2018-12-20T03:14:33.453Z,3.70
2018-12-20T03:17:01.955Z,3.60
2018-12-20T03:19:30.157Z,3.70
2018-12-20T03:21:58.418Z,3.70
2018-12-20T03:24:26.865Z,3.70
2018-12-20T03:26:55.253Z,3.60
2018-12-20T03:29:23.586Z,3.70
2018-12-20T03:31:51.941Z,3.60
2018-12-20T03:34:20.397Z,3.50
2018-12-20T03:36:48.932Z,3.50
2018-12-20T03:39:17.292Z,3.50
2018-12-20T03:41:45.633Z,3.30
2018-12-20T03:44:13.840Z,3.30
2018-12-20T03:46:42.062Z,3.40
2018-12-20T03:49:10.473Z,3.50
2018-12-20T03:51:38.854Z,3.50
2018-12-20T03:54:07.093Z,3.50
2018-12-20T03:56:35.538Z,3.50
2018-12-20T03:59:04.044Z,3.50
2018-12-20T04:01:32.451Z,3.40
2018-12-20T04:04:00.755Z,3.60
2018-12-20T04:06:30.342Z,3.50
2018-12-20T04:08:58.788Z,3.60
2018-12-20T04:11:27.088Z,3.50
2018-12-20T04:13:55.419Z,3.60
2018-12-20T04:16:23.886Z,3.60
2018-12-20T04:18:52.349Z,3.60
2018-12-20T04:21:20.928Z,3.60
2018-12-20T04:23:49.555Z,3.60
2018-12-20T04:26:17.894Z,3.60
2018-12-20T04:28:46.107Z,3.70
2018-12-20T04:31:14.287Z,3.60
2018-12-20T04:33:42.445Z,3.60
2018-12-20T04:36:12.634Z,3.60
2018-12-20T04:38:41.112Z,3.50
2018-12-20T04:41:09.502Z,3.60
2018-12-20T04:43:37.792Z,3.50
2018-12-20T04:46:06.204Z,3.50
2018-12-20T04:48:34.906Z,3.50
2018-12-20T04:51:03.437Z,3.60
2018-12-20T04:53:31.751Z,3.60
2018-12-20T04:56:00.473Z,3.40
2018-12-20T04:58:28.826Z,3.50
2018-12-20T05:00:57.136Z,3.50
2018-12-20T05:03:25.573Z,3.40
2018-12-20T05:05:53.868Z,3.40
2018-12-20T05:08:22.303Z,3.50
2018-12-20T05:10:50.642Z,3.50
2018-12-20T05:13:18.937Z,3.50
2018-12-20T05:15:55.823Z,3.60
2018-12-20T05:18:17.401Z,3.70
2018-12-20T05:20:45.576Z,3.70
2018-12-20T05:23:13.736Z,3.70
2018-12-20T05:25:42.288Z,3.70
2018-12-20T05:28:10.532Z,3.60
2018-12-20T05:30:38.867Z,3.50
2018-12-20T05:33:07.168Z,3.60
2018-12-20T05:35:35.376Z,3.60
2018-12-20T05:38:03.598Z,3.60
2018-12-20T05:40:31.816Z,3.60
2018-12-20T05:43:00.104Z,3.70
2018-12-20T05:45:28.728Z,3.60
2018-12-20T05:47:57.108Z,3.60
2018-12-20T05:50:25.473Z,3.60
2018-12-20T05:52:53.732Z,3.50
2018-12-20T05:55:21.984Z,3.70
2018-12-20T05:57:50.133Z,3.80
2018-12-20T06:00:18.313Z,3.60
2018-12-20T06:02:46.508Z,3.70
2018-12-20T06:05:14.881Z,3.70
2018-12-20T06:07:43.249Z,3.70
2018-12-20T06:10:11.521Z,3.60
2018-12-20T06:12:39.776Z,3.80
2018-12-20T06:15:08.144Z,3.80
2018-12-20T06:17:36.429Z,3.70
2018-12-20T06:20:05.646Z,3.70
2018-12-20T06:22:34.059Z,3.70
2018-12-20T06:25:02.296Z,3.80
2018-12-20T06:27:30.520Z,3.90
2018-12-20T06:29:58.688Z,3.90
2018-12-20T06:32:26.863Z,4.00
2018-12-20T06:34:55.024Z,4.00
2018-12-20T06:37:23.202Z,4.00
2018-12-20T06:39:51.359Z,3.90
2018-12-20T06:42:19.529Z,4.10
2018-12-20T06:44:47.684Z,4.00
2018-12-20T06:47:15.865Z,3.90
2018-12-20T06:49:44.021Z,4.00
2018-12-20T06:52:12.192Z,4.00
2018-12-20T06:54:40.384Z,4.10
2018-12-20T06:57:08.566Z,4.00
2018-12-20T06:59:36.724Z,4.00
2018-12-20T07:02:04.972Z,4.20
2018-12-20T07:04:33.187Z,4.20
2018-12-20T07:07:01.361Z,4.10
2018-12-20T07:09:29.704Z,4.20
2018-12-20T07:11:59.423Z,4.20
2018-12-20T07:14:27.702Z,4.30
2018-12-20T07:16:55.856Z,4.10
2018-12-20T07:19:24.245Z,4.20
2018-12-20T07:21:53.524Z,4.30
2018-12-20T07:24:21.770Z,4.50
2018-12-20T07:26:49.997Z,4.80
2018-12-20T07:29:18.143Z,4.90
2018-12-20T07:31:46.554Z,5.00
2018-12-20T07:34:16.254Z,5.00
2018-12-20T07:36:44.682Z,5.10
2018-12-20T07:39:12.828Z,5.10
2018-12-20T07:41:41.134Z,5.10
2018-12-20T07:44:09.295Z,5.20
2018-12-20T07:46:37.973Z,5.10
2018-12-20T07:49:06.529Z,5.20
2018-12-20T07:51:34.707Z,5.20
2018-12-20T07:54:03.085Z,5.30
2018-12-20T07:56:31.496Z,5.20
2018-12-20T07:58:59.678Z,5.20
2018-12-20T08:01:27.857Z,5.80
2018-12-20T08:03:56.012Z,5.80
2018-12-20T08:06:24.185Z,5.90
2018-12-20T08:08:52.538Z,5.70
2018-12-20T08:11:20.818Z,5.70
2018-12-20T08:13:49.857Z,5.80
2018-12-20T08:16:18.022Z,5.80
2018-12-20T08:18:46.185Z,5.90
2018-12-20T08:21:14.354Z,5.90
2018-12-20T08:23:42.504Z,5.90
2018-12-20T08:26:10.676Z,5.90
2018-12-20T08:28:38.827Z,5.90
2018-12-20T08:31:07.029Z,5.90
2018-12-20T08:33:35.328Z,5.90
2018-12-20T08:36:03.504Z,5.90
2018-12-20T08:38:31.653Z,5.90
2018-12-20T08:40:59.821Z,5.90
2018-12-20T08:43:28.061Z,6.00
2018-12-20T08:45:56.384Z,6.00
2018-12-20T08:48:24.596Z,6.00
2018-12-20T08:50:52.771Z,6.10
2018-12-20T08:53:20.923Z,6.20
2018-12-20T08:55:49.072Z,6.20
2018-12-20T08:58:17.264Z,6.20
2018-12-20T09:00:45.420Z,6.20
2018-12-20T09:03:13.736Z,6.50
2018-12-20T09:05:41.888Z,7.30
2018-12-20T09:08:10.060Z,6.90
2018-12-20T09:10:38.214Z,6.80
2018-12-20T09:13:09.684Z,6.70
2018-12-20T09:15:36.572Z,6.60
2018-12-20T09:18:05.196Z,6.50
2018-12-20T09:20:33.375Z,6.60
2018-12-20T09:23:01.536Z,6.60
2018-12-20T09:25:29.694Z,6.70
2018-12-20T09:27:57.861Z,6.70
2018-12-20T09:30:30.531Z,6.70
2018-12-20T09:32:56.801Z,6.80
2018-12-20T09:35:25.078Z,6.80
2018-12-20T09:37:53.241Z,6.80
2018-12-20T09:40:21.388Z,6.80
2018-12-20T09:42:49.629Z,6.80
2018-12-20T09:45:17.772Z,6.90
2018-12-20T09:47:52.929Z,7.00
2018-12-20T09:50:21.166Z,7.00
2018-12-20T09:52:49.493Z,7.00
2018-12-20T09:55:17.684Z,7.10
2018-12-20T09:57:45.850Z,7.10
2018-12-20T10:00:14.013Z,7.20
2018-12-20T10:02:42.191Z,7.50
2018-12-20T10:05:10.719Z,7.50
2018-12-20T10:07:38.882Z,7.40
2018-12-20T10:10:07.667Z,7.40
2018-12-20T10:12:35.884Z,7.40
2018-12-20T10:15:05.271Z,7.40
2018-12-20T10:17:33.435Z,7.40
2018-12-20T10:20:01.588Z,7.30
2018-12-20T10:22:29.830Z,7.40
2018-12-20T10:24:57.973Z,7.40
2018-12-20T10:27:31.409Z,7.50
2018-12-20T10:29:56.301Z,7.50
2018-12-20T10:32:24.481Z,7.40
2018-12-20T10:34:52.625Z,7.40
2018-12-20T10:37:20.790Z,7.50
2018-12-20T10:39:48.932Z,7.50
2018-12-20T10:42:17.101Z,7.50
2018-12-20T10:44:45.248Z,7.50
2018-12-20T10:47:19.116Z,7.50
2018-12-20T10:49:47.273Z,7.50
2018-12-20T10:52:15.600Z,7.50
2018-12-20T10:54:43.816Z,7.60
2018-12-20T10:57:11.984Z,7.60
2018-12-20T10:59:40.131Z,7.80
2018-12-20T11:02:14.016Z,7.90
2018-12-20T11:07:50.517Z,8.00
2018-12-20T11:10:22.592Z,8.10
2018-12-20T11:12:50.757Z,8.20
2018-12-20T11:15:18.968Z,8.20
2018-12-20T11:17:47.136Z,8.10
2018-12-20T11:20:15.277Z,8.00
2018-12-20T11:22:43.470Z,8.00
2018-12-20T11:25:11.704Z,8.20
2018-12-20T11:27:39.874Z,8.30
2018-12-20T11:30:08.965Z,8.40
2018-12-20T11:32:37.127Z,8.30
2018-12-20T11:35:05.539Z,8.30
2018-12-20T11:37:33.712Z,8.30
2018-12-20T11:40:01.861Z,8.30
2018-12-20T11:42:30.024Z,8.20
2018-12-20T11:44:58.184Z,8.30
2018-12-20T11:47:27.690Z,9.10
2018-12-20T11:49:55.913Z,9.50
2018-12-20T11:52:24.570Z,9.20
2018-12-20T11:54:54.210Z,9.00
2018-12-20T11:57:22.722Z,8.80
2018-12-20T11:59:50.965Z,9.00
2018-12-20T12:02:24.480Z,9.10
2018-12-20T12:04:49.392Z,9.10
2018-12-20T12:07:17.554Z,9.10
2018-12-20T12:09:45.725Z,9.10
2018-12-20T12:12:13.873Z,9.20
2018-12-20T12:14:42.037Z,9.10
2018-12-20T12:17:10.184Z,8.80
2018-12-20T12:19:38.352Z,8.70
2018-12-20T12:22:06.496Z,8.50
2018-12-20T12:24:34.872Z,8.40
2018-12-20T12:27:03.019Z,8.30
2018-12-20T12:29:31.186Z,8.30
2018-12-20T12:31:59.328Z,8.20
2018-12-20T12:34:27.498Z,8.30
2018-12-20T12:36:55.644Z,8.30
2018-12-20T12:39:23.817Z,8.30
2018-12-20T12:41:52.021Z,8.30
2018-12-20T12:44:20.181Z,8.40
2018-12-20T12:46:48.325Z,8.50
2018-12-20T12:49:16.493Z,8.60
2018-12-20T12:51:52.908Z,8.60
2018-12-20T12:54:15.368Z,8.70
2018-12-20T12:56:43.508Z,8.70
2018-12-20T12:59:11.729Z,8.50
2018-12-20T13:01:40.234Z,8.50
2018-12-20T13:04:08.408Z,8.40
2018-12-20T13:06:36.572Z,8.40
2018-12-20T13:09:06.081Z,8.40
2018-12-20T13:11:34.330Z,8.40
2018-12-20T13:14:02.575Z,8.50
2018-12-20T13:16:30.721Z,8.50
2018-12-20T13:18:59.070Z,8.50
2018-12-20T13:21:27.212Z,8.60
2018-12-20T13:23:55.380Z,8.70
2018-12-20T13:26:23.524Z,8.70
2018-12-20T13:28:51.689Z,8.70
2018-12-20T13:31:26.198Z,8.70
2018-12-20T13:33:59.851Z,8.60
2018-12-20T13:36:33.509Z,8.50
2018-12-20T13:39:08.061Z,8.30
2018-12-20T13:41:41.828Z,8.30
2018-12-20T13:44:16.440Z,8.20
2018-12-20T13:46:50.061Z,8.10
2018-12-20T13:49:23.818Z,8.10
2018-12-20T13:51:57.552Z,8.10
2018-12-20T13:54:31.231Z,8.10
2018-12-20T13:57:04.905Z,8.10
2018-12-20T13:59:38.738Z,8.10
2018-12-20T14:02:12.387Z,8.10
2018-12-20T14:04:46.099Z,8.00
2018-12-20T14:07:19.840Z,7.90
2018-12-20T14:09:54.602Z,7.90
2018-12-20T14:12:28.344Z,7.80
2018-12-20T14:15:02.115Z,7.80
2018-12-20T14:17:36.686Z,7.80
2018-12-20T14:20:11.261Z,7.80
2018-12-20T14:22:44.983Z,7.80
2018-12-20T14:25:19.625Z,7.70
2018-12-20T14:27:53.272Z,7.70
2018-12-20T14:30:26.960Z,7.80
2018-12-20T14:33:01.614Z,7.80
2018-12-20T14:35:36.193Z,7.70
2018-12-20T14:38:09.892Z,7.70
2018-12-20T14:40:43.642Z,7.60
2018-12-20T14:43:17.388Z,7.60
2018-12-20T14:45:51.072Z,7.50
2018-12-20T14:48:30.114Z,7.40
2018-12-20T14:51:03.837Z,7.40
2018-12-20T14:53:38.472Z,7.40
2018-12-20T14:56:12.200Z,7.30
2018-12-20T14:58:45.840Z,7.30
2018-12-20T15:01:19.605Z,7.20
2018-12-20T15:03:53.328Z,7.40
2018-12-20T15:06:27.005Z,7.50
2018-12-20T15:09:00.704Z,7.30
2018-12-20T15:11:35.215Z,7.30
2018-12-20T15:14:08.924Z,7.30
2018-12-20T15:16:43.419Z,7.10
2018-12-20T15:19:17.358Z,7.10
2018-12-20T15:21:51.054Z,7.10
2018-12-20T15:24:24.868Z,7.10
2018-12-20T15:26:58.662Z,7.10
2018-12-20T15:29:32.443Z,7.10
2018-12-20T15:32:07.000Z,7.40
2018-12-20T15:34:41.633Z,7.40
2018-12-20T15:37:15.249Z,7.30
2018-12-20T15:39:49.032Z,7.20
2018-12-20T15:42:22.839Z,7.20
2018-12-20T15:44:56.722Z,7.10
2018-12-20T15:47:31.096Z,7.00
2018-12-20T15:50:07.157Z,6.90
2018-12-20T15:52:41.368Z,6.90
2018-12-20T15:55:15.056Z,6.90
2018-12-20T15:57:48.848Z,6.80
2018-12-20T16:00:22.768Z,6.80
2018-12-20T16:02:57.408Z,6.60
2018-12-20T16:05:32.120Z,6.50
2018-12-20T16:08:06.179Z,6.40
2018-12-20T16:10:40.653Z,6.30
2018-12-20T16:13:14.648Z,6.20
2018-12-20T16:15:48.384Z,6.20
2018-12-20T16:18:22.067Z,6.10
2018-12-20T16:20:55.768Z,6.00
2018-12-20T16:23:29.489Z,5.70
2018-12-20T16:26:03.208Z,5.60
2018-12-20T16:28:37.817Z,5.70
2018-12-20T16:31:11.512Z,5.70
2018-12-20T16:33:45.133Z,5.50
2018-12-20T16:36:18.918Z,5.50
2018-12-20T16:38:52.609Z,5.40
2018-12-20T16:41:26.293Z,5.30
2018-12-20T16:44:00.200Z,5.40
2018-12-20T16:46:34.751Z,5.30
2018-12-20T16:49:13.561Z,5.00
2018-12-20T16:51:44.315Z,5.00
2018-12-20T16:54:18.008Z,5.00
2018-12-20T16:56:51.676Z,5.00
2018-12-20T16:59:26.263Z,5.00
2018-12-20T17:02:00.024Z,5.00
2018-12-20T17:04:34.522Z,4.80
2018-12-20T17:07:08.261Z,4.90
2018-12-20T17:09:41.924Z,5.00
2018-12-20T17:12:15.689Z,4.80
2018-12-20T17:14:50.165Z,4.60
2018-12-20T17:17:23.797Z,4.80
2018-12-20T17:19:57.411Z,4.80
2018-12-20T17:22:31.008Z,4.70
2018-12-20T17:25:04.884Z,4.90
2018-12-20T17:27:39.343Z,5.00
2018-12-20T17:30:13.939Z,5.30
2018-12-20T17:32:48.468Z,5.60
2018-12-20T17:35:22.308Z,5.80
2018-12-20T17:37:56.038Z,5.90
2018-12-20T17:40:29.781Z,5.90
2018-12-20T17:43:03.410Z,6.00
2018-12-20T17:45:37.068Z,6.00
2018-12-20T17:48:10.697Z,6.10
2018-12-20T17:50:44.377Z,6.10
2018-12-20T17:53:18.980Z,6.20
2018-12-20T17:55:53.580Z,6.20
2018-12-20T17:58:27.254Z,6.30
2018-12-20T18:01:01.891Z,6.40
2018-12-20T18:03:35.480Z,6.40
2018-12-20T18:06:09.200Z,6.50
2018-12-20T18:08:42.893Z,6.60
2018-12-20T18:11:17.448Z,6.60
2018-12-20T18:13:51.222Z,6.60
2018-12-20T18:16:25.041Z,6.50
2018-12-20T18:18:59.557Z,6.40
2018-12-20T18:21:33.269Z,6.30
2018-12-20T18:24:06.993Z,6.20
2018-12-20T18:26:40.672Z,6.10
2018-12-20T18:29:14.424Z,6.00
2018-12-20T18:31:48.200Z,5.90
2018-12-20T18:34:21.786Z,5.80
2018-12-20T18:36:56.419Z,5.60
2018-12-20T18:39:30.156Z,4.90
2018-12-20T18:42:03.992Z,5.10
2018-12-20T18:44:37.716Z,5.30
2018-12-20T18:47:11.408Z,5.30
2018-12-20T18:49:47.660Z,5.30
2018-12-20T18:52:21.168Z,5.20
2018-12-20T18:54:55.489Z,5.10
2018-12-20T18:57:29.173Z,5.00
2018-12-20T19:00:03.428Z,4.90
2018-12-20T19:02:37.445Z,5.00
2018-12-20T19:05:11.418Z,5.10
2018-12-20T19:07:46.241Z,5.20
2018-12-20T19:10:20.974Z,5.20
2018-12-20T19:12:54.908Z,5.20
2018-12-20T19:15:28.662Z,5.10
2018-12-20T19:18:02.264Z,4.70
2018-12-20T19:20:36.092Z,4.70
2018-12-20T19:23:10.532Z,4.90
2018-12-20T19:25:44.188Z,4.80
2018-12-20T19:28:17.941Z,4.80
2018-12-20T19:30:51.687Z,4.70
2018-12-20T19:33:25.464Z,4.70
2018-12-20T19:36:00.032Z,4.70
2018-12-20T19:38:33.600Z,4.60
2018-12-20T19:41:07.289Z,4.60
2018-12-20T19:43:40.892Z,4.50
2018-12-20T19:46:15.469Z,4.50
2018-12-20T19:48:49.140Z,4.40
2018-12-20T19:51:23.848Z,4.50
2018-12-20T19:53:57.644Z,4.40
2018-12-20T19:56:31.413Z,4.50
2018-12-20T19:59:05.253Z,4.50
2018-12-20T20:01:38.921Z,4.40
2018-12-20T20:04:12.761Z,4.30
2018-12-20T20:06:46.449Z,4.20
2018-12-20T20:09:20.169Z,4.10
2018-12-20T20:11:54.005Z,4.10
2018-12-20T20:14:27.672Z,3.90
2018-12-20T20:17:01.391Z,3.80
2018-12-20T20:19:35.195Z,3.70
2018-12-20T20:22:08.845Z,3.60
2018-12-20T20:24:42.536Z,3.40
2018-12-20T20:27:16.278Z,3.50
2018-12-20T20:29:49.992Z,3.50
2018-12-20T20:32:23.736Z,3.20
2018-12-20T20:34:57.525Z,3.30
2018-12-20T20:37:31.241Z,3.30
2018-12-20T20:40:06.672Z,3.20
2018-12-20T20:42:40.396Z,3.20
2018-12-20T20:45:14.016Z,3.30
2018-12-20T20:47:48.607Z,3.20
2018-12-20T20:50:22.813Z,3.30
2018-12-20T20:52:56.966Z,3.00
2018-12-20T20:55:30.627Z,3.10
2018-12-20T20:58:05.273Z,3.20
2018-12-20T21:00:38.964Z,3.20
2018-12-20T21:03:12.650Z,3.30
2018-12-20T21:05:46.444Z,3.30
2018-12-20T21:08:20.108Z,3.10
2018-12-20T21:10:53.797Z,3.30
2018-12-20T21:13:27.532Z,3.30
2018-12-20T21:16:01.209Z,3.50
2018-12-20T21:18:35.821Z,3.50
2018-12-20T21:21:09.723Z,3.40
2018-12-20T21:23:43.420Z,3.40
2018-12-20T21:26:17.116Z,3.50
2018-12-20T21:28:50.805Z,3.40
2018-12-20T21:31:24.424Z,3.70
2018-12-20T21:33:58.161Z,3.50
2018-12-20T21:36:31.880Z,3.40
2018-12-20T21:39:06.317Z,3.50
2018-12-20T21:41:40.393Z,3.60
2018-12-20T21:44:14.059Z,3.70
2018-12-20T21:46:47.796Z,3.70
2018-12-20T21:49:21.557Z,3.80
2018-12-20T21:51:55.353Z,3.80
2018-12-20T21:54:29.092Z,3.90
2018-12-20T21:57:02.808Z,3.80
2018-12-20T21:59:36.499Z,3.70
2018-12-20T22:02:11.084Z,3.80
2018-12-20T22:04:44.791Z,3.90
2018-12-20T22:07:18.449Z,4.00
2018-12-20T22:09:52.136Z,4.00
2018-12-20T22:12:25.825Z,3.80
2018-12-20T22:14:59.620Z,3.90
2018-12-20T22:17:33.357Z,3.90
2018-12-20T22:20:07.154Z,3.80
2018-12-20T22:22:40.871Z,3.70
2018-12-20T22:25:15.926Z,3.70
2018-12-20T22:27:50.503Z,3.70
2018-12-20T22:30:24.736Z,3.70
2018-12-20T22:32:59.057Z,3.70
2018-12-20T22:35:33.171Z,3.70
2018-12-20T22:38:07.089Z,3.80
2018-12-20T22:40:40.780Z,3.80
2018-12-20T22:43:14.470Z,3.80
2018-12-20T22:45:48.185Z,3.70
2018-12-20T22:48:21.861Z,3.80
2018-12-20T22:50:56.003Z,3.70
2018-12-20T22:53:30.233Z,3.80
2018-12-20T22:56:03.897Z,3.90
2018-12-20T22:58:37.644Z,4.00
2018-12-20T23:01:11.256Z,4.10
2018-12-20T23:03:45.000Z,4.00
2018-12-20T23:06:18.634Z,4.40
2018-12-20T23:08:52.356Z,4.20
2018-12-20T23:11:26.939Z,4.50
2018-12-20T23:14:00.637Z,4.80
2018-12-20T23:16:35.262Z,5.00
2018-12-20T23:19:09.036Z,5.10
2018-12-20T23:21:42.633Z,5.30
2018-12-20T23:24:16.420Z,5.50
2018-12-20T23:26:50.190Z,5.60
2018-12-20T23:29:23.879Z,5.60
2018-12-20T23:31:57.420Z,5.60
2018-12-20T23:34:31.111Z,5.70
2018-12-20T23:37:04.704Z,5.70
2018-12-20T23:39:38.348Z,5.80
2018-12-20T23:42:12.016Z,5.80
2018-12-20T23:44:45.628Z,5.90
2018-12-20T23:47:19.340Z,5.90
2018-12-20T23:49:53.135Z,6.00
2018-12-20T23:52:26.967Z,6.00
2018-12-20T23:55:00.640Z,6.10
2018-12-20T23:57:34.309Z,6.00
